Waneta, Kentucky
Current Conditions -  °F | °C
As of 7:15 PM on Thursday 27 Nov 2014 (Local Time) from KI39 Reporting Station
Overcast Overcast  
Wind Chill: 21°   Ceiling: 3100
Heat Index: 30°   Visibility: 10mi
Dew Point: 25°   Wind: 12mph
Humidity: 80%   Direction: 280°W
Pressure: 30.38"   Gusts: 16mph
Location:  37.47°N, 84.04°W
Report Text: KI39 280015Z AUTO 28010G14KT 10SM SCT021 SCT025 OVC031 M01/M04 A3038 RMK AO2
Loading
Personal Weather Stations






























Interactive Weather Map New forecast layout! Learn more

10-Day Weather Forecast

Advertisements
Track Severe Weather on mobile